Terminal Aerodrome Forecast
Issued by NWS

Home | Current Version | Previous Version | Text Only | Print | Product List | Glossary On
Versions: 1 2 3 4 5 6 7 8 9 10 11 12 13 14 15 16
000
FTAK31 PAJN 231906 CCB
TAFAJN
TAF COR
PAJN 231906Z 2318/2418 VRB06KT P6SM -RA FEW050 OVC100
     FM232200 09010KT 5SM RA BR BKN025 OVC040
     FM240200 VRB06KT 4SM -SHRA BR BKN025 OVC040
     FM241200 08005KT P6SM SCT250=

USA.gov is the U.S. government's official web portal to all federal, state and local government web resources and services.